createdAt,value
2022-09-24T00:02:02.756Z,97848.57
2022-09-24T00:04:31.673Z,97843.71
2022-09-24T00:06:59.638Z,97843.04
2022-09-24T00:09:27.673Z,97841.32
2022-09-24T00:11:55.887Z,97843.61
2022-09-24T00:14:24.439Z,97841.56
2022-09-24T00:16:52.344Z,97843.50
2022-09-24T00:19:20.238Z,97845.97
2022-09-24T00:21:48.228Z,97844.77
2022-09-24T00:24:36.218Z,97843.20
2022-09-24T00:27:06.239Z,97845.66
2022-09-24T00:29:35.814Z,97842.01
2022-09-24T00:32:06.095Z,97838.03
2022-09-24T00:34:34.382Z,97837.87
2022-09-24T00:37:02.463Z,97839.95
2022-09-24T00:39:30.487Z,97839.10
2022-09-24T00:41:58.722Z,97840.13
2022-09-24T00:44:45.151Z,97839.80
2022-09-24T00:47:27.626Z,97836.86
2022-09-24T00:50:08.310Z,97840.52
2022-09-24T00:52:45.236Z,97840.35
2022-09-24T00:55:14.634Z,97838.09
2022-09-24T00:57:43.724Z,97837.57
2022-09-24T01:00:12.485Z,97835.13
2022-09-24T01:02:44.848Z,97836.35
2022-09-24T01:05:12.958Z,97840.34
2022-09-24T01:07:41.325Z,97845.38
2022-09-24T01:10:10.757Z,97850.21
2022-09-24T01:13:00.581Z,97851.79
2022-09-24T01:15:36.842Z,97853.17
2022-09-24T01:18:28.376Z,97853.19
2022-09-24T01:21:21.132Z,97853.34
2022-09-24T01:24:29.716Z,97855.77
2022-09-24T01:27:03.353Z,97857.67
2022-09-24T01:29:58.711Z,97855.42
2022-09-24T01:32:54.227Z,97854.04
2022-09-24T01:35:32.349Z,97853.16
2022-09-24T01:38:04.841Z,97850.04
2022-09-24T01:40:33.568Z,97850.73
2022-09-24T01:43:05.798Z,97854.87
2022-09-24T01:45:37.307Z,97851.91
2022-09-24T01:48:06.441Z,97846.36
2022-09-24T01:51:26.167Z,97842.71
2022-09-24T01:54:12.445Z,97836.98
2022-09-24T01:56:46.878Z,97835.94
2022-09-24T01:59:20.083Z,97836.29
2022-09-24T02:02:06.358Z,97832.80
2022-09-24T02:04:44.463Z,97828.48
2022-09-24T02:07:24.732Z,97832.98
2022-09-24T02:09:52.804Z,97835.24
2022-09-24T02:12:26.709Z,97835.41
2022-09-24T02:15:06.788Z,97833.49
2022-09-24T02:17:38.529Z,97833.48
2022-09-24T02:20:13.659Z,97835.91
2022-09-24T02:22:44.595Z,97837.11
2022-09-24T02:25:18.571Z,97830.67
2022-09-24T02:27:46.883Z,97834.83
2022-09-24T02:30:14.943Z,97836.02
2022-09-24T02:32:44.673Z,97834.29
2022-09-24T02:35:13.464Z,97837.91
2022-09-24T02:37:44.603Z,97843.11
2022-09-24T02:40:15.039Z,97838.09
2022-09-24T02:42:43.661Z,97838.60
2022-09-24T02:45:12.568Z,97839.14
2022-09-24T02:47:40.805Z,97837.06
2022-09-24T02:50:09.640Z,97837.23
2022-09-24T02:52:37.693Z,97835.83
2022-09-24T02:55:05.806Z,97838.43
2022-09-24T02:57:33.722Z,97841.20
2022-09-24T03:00:02.828Z,97840.67
2022-09-24T03:02:30.773Z,97840.84
2022-09-24T03:04:59.062Z,97841.50
2022-09-24T03:07:26.999Z,97837.67
2022-09-24T03:09:54.925Z,97840.07
2022-09-24T03:12:22.857Z,97840.05
2022-09-24T03:14:51.128Z,97836.02
2022-09-24T03:17:19.138Z,97838.95
2022-09-24T03:19:47.275Z,97843.80
2022-09-24T03:22:15.147Z,97845.70
2022-09-24T03:24:43.035Z,97847.94
2022-09-24T03:27:10.935Z,97850.89
2022-09-24T03:29:57.383Z,97847.09
2022-09-24T03:32:25.275Z,97847.09
2022-09-24T03:34:53.287Z,97846.41
2022-09-24T03:37:21.106Z,97847.98
2022-09-24T03:39:48.934Z,97849.02
2022-09-24T03:42:16.823Z,97844.01
2022-09-24T03:44:44.860Z,97847.50
2022-09-24T03:47:12.751Z,97846.11
2022-09-24T03:49:40.598Z,97849.23
2022-09-24T03:52:09.026Z,97852.52
2022-09-24T03:54:36.987Z,97855.45
2022-09-24T03:57:05.373Z,97855.64
2022-09-24T03:59:33.338Z,97855.30
2022-09-24T04:02:01.342Z,97854.61
2022-09-24T04:04:29.288Z,97855.65
2022-09-24T04:06:57.723Z,97856.70
2022-09-24T04:09:26.215Z,97858.44
2022-09-24T04:11:54.160Z,97855.69
2022-09-24T04:14:22.239Z,97851.54
2022-09-24T04:16:50.265Z,97851.38
2022-09-24T04:19:19.159Z,97854.15
2022-09-24T04:21:47.094Z,97853.98
2022-09-24T04:24:15.184Z,97853.45
2022-09-24T04:26:43.057Z,97849.83
2022-09-24T04:29:11.118Z,97851.23
2022-09-24T04:31:40.660Z,97854.51
2022-09-24T04:34:10.417Z,97852.79
2022-09-24T04:36:38.546Z,97855.04
2022-09-24T04:39:06.503Z,97857.80
2022-09-24T04:41:35.302Z,97856.58
2022-09-24T04:44:05.366Z,97861.13
2022-09-24T04:46:34.525Z,97862.98
2022-09-24T04:49:02.746Z,97867.20
2022-09-24T04:51:34.085Z,97867.73
2022-09-24T04:54:03.104Z,97866.88
2022-09-24T04:56:31.715Z,97864.80
2022-09-24T04:58:59.767Z,97863.31
2022-09-24T05:01:27.917Z,97862.59
2022-09-24T05:03:56.275Z,97855.54
2022-09-24T05:06:24.297Z,97848.08
2022-09-24T05:08:52.197Z,97848.08
2022-09-24T05:11:20.482Z,97847.87
2022-09-24T05:13:48.483Z,97848.46
2022-09-24T05:16:16.511Z,97847.73
2022-09-24T05:18:44.782Z,97848.91
2022-09-24T05:21:12.862Z,97846.40
2022-09-24T05:23:40.912Z,97846.50
2022-09-24T05:26:27.229Z,97847.50
2022-09-24T05:28:55.452Z,97847.17
2022-09-24T05:31:23.930Z,97845.55
2022-09-24T05:33:52.734Z,97852.66
2022-09-24T05:36:20.778Z,97854.62
2022-09-24T05:38:48.701Z,97850.80
2022-09-24T05:41:16.781Z,97851.44
2022-09-24T05:43:44.723Z,97853.73
2022-09-24T05:46:12.731Z,97853.90
2022-09-24T05:48:40.666Z,97855.41
2022-09-24T05:51:08.813Z,97853.06
2022-09-24T05:53:36.819Z,97858.02
2022-09-24T05:56:04.913Z,97858.44
2022-09-24T05:58:33.093Z,97854.25
2022-09-24T06:01:02.090Z,97850.16
2022-09-24T06:03:31.971Z,97852.02
2022-09-24T06:06:03.413Z,97850.16
2022-09-24T06:08:33.397Z,97848.88
2022-09-24T06:11:03.780Z,97851.60
2022-09-24T06:13:36.433Z,97854.33
2022-09-24T06:16:10.171Z,97855.69
2022-09-24T06:18:40.391Z,97857.92
2022-09-24T06:21:12.279Z,97858.15
2022-09-24T06:23:41.484Z,97859.40
2022-09-24T06:26:12.175Z,97865.24
2022-09-24T06:28:41.688Z,97867.42
2022-09-24T06:31:12.180Z,97869.09
2022-09-24T06:33:41.157Z,97873.55
2022-09-24T06:36:09.533Z,97873.51
2022-09-24T06:38:39.610Z,97875.39
2022-09-24T06:41:07.937Z,97875.55
2022-09-24T06:43:36.345Z,97873.73
2022-09-24T06:46:05.086Z,97875.50
2022-09-24T06:48:33.590Z,97880.60
2022-09-24T06:51:04.914Z,97883.43
2022-09-24T06:53:33.135Z,97883.20
2022-09-24T06:56:03.650Z,97886.67
2022-09-24T06:58:31.767Z,97890.34
2022-09-24T07:01:02.965Z,97893.84
2022-09-24T07:03:33.877Z,97892.77
2022-09-24T07:06:07.204Z,97892.83
2022-09-24T07:08:35.207Z,97888.27
2022-09-24T07:11:03.414Z,97884.98
2022-09-24T07:13:31.588Z,97882.02
2022-09-24T07:16:01.650Z,97880.27
2022-09-24T07:18:30.281Z,97881.55
2022-09-24T07:20:58.547Z,97882.52
2022-09-24T07:23:28.086Z,97883.20
2022-09-24T07:25:57.930Z,97878.30
2022-09-24T07:28:26.397Z,97874.82
2022-09-24T07:30:59.546Z,97875.27
2022-09-24T07:33:28.136Z,97874.94
2022-09-24T07:35:56.196Z,97876.95
2022-09-24T07:38:24.225Z,97880.22
2022-09-24T07:40:53.174Z,97877.26
2022-09-24T07:43:21.745Z,97877.41
2022-09-24T07:45:49.703Z,97879.50
2022-09-24T07:48:17.958Z,97880.91
2022-09-24T07:50:46.030Z,97880.80
2022-09-24T07:53:17.498Z,97885.84
2022-09-24T07:55:45.708Z,97888.11
2022-09-24T07:58:17.489Z,97888.94
2022-09-24T08:00:45.670Z,97890.52
2022-09-24T08:03:13.780Z,97892.38
2022-09-24T08:05:45.788Z,97890.52
2022-09-24T08:08:15.110Z,97893.50
2022-09-24T08:10:43.723Z,97889.95
2022-09-24T08:13:12.304Z,97891.94
2022-09-24T08:15:40.542Z,97891.60
2022-09-24T08:18:08.923Z,97892.53
2022-09-24T08:20:38.397Z,97891.36
2022-09-24T08:23:10.857Z,97890.20
2022-09-24T08:25:39.128Z,97892.20
2022-09-24T08:28:08.572Z,97892.80
2022-09-24T08:30:36.498Z,97892.83
2022-09-24T08:33:06.905Z,97893.66
2022-09-24T08:35:36.186Z,97898.36
2022-09-24T08:38:04.433Z,97898.17
2022-09-24T08:40:46.313Z,97896.81
2022-09-24T08:43:35.996Z,97896.43
2022-09-24T08:46:33.874Z,97894.50
2022-09-24T08:49:05.040Z,97887.54
2022-09-24T08:51:45.871Z,97887.65
2022-09-24T08:54:15.573Z,97888.79
2022-09-24T08:56:46.590Z,97889.98
2022-09-24T08:59:37.862Z,97890.52
2022-09-24T09:02:40.031Z,97892.85
2022-09-24T09:05:27.693Z,97895.02
2022-09-24T09:08:27.196Z,97892.59
2022-09-24T09:11:02.118Z,97888.94
2022-09-24T09:13:40.486Z,97882.80
2022-09-24T09:16:29.573Z,97880.94
2022-09-24T09:19:05.004Z,97879.20
2022-09-24T09:21:46.919Z,97876.21
2022-09-24T09:24:26.886Z,97870.55
2022-09-24T09:26:56.915Z,97865.11
2022-09-24T09:29:28.250Z,97866.31
2022-09-24T09:32:10.370Z,97861.55
2022-09-24T09:34:47.776Z,97856.80
2022-09-24T09:37:23.356Z,97853.55
2022-09-24T09:40:19.905Z,97853.95
2022-09-24T09:42:48.733Z,97854.41
2022-09-24T09:45:32.647Z,97854.30
2022-09-24T09:48:03.315Z,97851.83
2022-09-24T09:50:44.645Z,97854.30
2022-09-24T09:53:23.285Z,97857.27
2022-09-24T09:56:04.499Z,97857.70
2022-09-24T09:58:35.320Z,97853.46
2022-09-24T10:01:15.745Z,97854.95
2022-09-24T10:03:46.900Z,97860.29
2022-09-24T10:06:24.628Z,97860.80
2022-09-24T10:08:53.306Z,97859.37
2022-09-24T10:11:23.132Z,97859.31
2022-09-24T10:14:11.230Z,97859.61
2022-09-24T10:16:42.488Z,97858.65
2022-09-24T10:19:26.019Z,97860.92
2022-09-24T10:21:57.599Z,97856.09
2022-09-24T10:24:27.720Z,97849.02
2022-09-24T10:26:55.849Z,97852.30
2022-09-24T10:29:50.872Z,97855.00
2022-09-24T10:32:29.892Z,97860.94
2022-09-24T10:35:01.345Z,97859.70
2022-09-24T10:37:30.377Z,97861.11
2022-09-24T10:40:12.153Z,97856.42
2022-09-24T10:42:41.215Z,97851.04
2022-09-24T10:45:14.627Z,97849.15
2022-09-24T10:48:19.026Z,97848.78
2022-09-24T10:50:56.038Z,97850.15
2022-09-24T10:53:29.940Z,97845.69
2022-09-24T10:56:11.775Z,97843.60
2022-09-24T10:58:58.527Z,97847.80
2022-09-24T11:01:53.007Z,97847.61
2022-09-24T11:04:38.623Z,97849.70
2022-09-24T11:07:07.064Z,97843.70
2022-09-24T11:09:54.689Z,97842.23
2022-09-24T11:12:52.889Z,97836.49
2022-09-24T11:15:34.744Z,97829.80
2022-09-24T11:18:17.918Z,97830.02
2022-09-24T11:21:23.857Z,97832.52
2022-09-24T11:24:15.716Z,97831.13
2022-09-24T11:27:05.755Z,97833.06
2022-09-24T11:29:52.320Z,97833.10
2022-09-24T11:32:52.495Z,97832.02
2022-09-24T11:35:40.799Z,97826.80
2022-09-24T11:38:23.868Z,97825.92
2022-09-24T11:41:13.686Z,97823.95
2022-09-24T11:43:54.793Z,97819.92
2022-09-24T11:46:47.528Z,97811.86
2022-09-24T11:49:34.039Z,97808.69
2022-09-24T11:52:32.929Z,97809.48
2022-09-24T11:55:24.544Z,97814.57
2022-09-24T11:58:17.190Z,97813.02
2022-09-24T12:01:12.976Z,97810.16
2022-09-24T12:03:57.234Z,97809.65
2022-09-24T12:06:32.039Z,97807.75
2022-09-24T12:09:14.419Z,97805.23
2022-09-24T12:12:15.676Z,97804.64
2022-09-24T12:14:50.390Z,97805.27
2022-09-24T12:17:32.929Z,97802.67
2022-09-24T12:20:09.888Z,97797.70
2022-09-24T12:22:40.648Z,97801.82
2022-09-24T12:25:12.859Z,97796.09
2022-09-24T12:27:42.999Z,97793.75
2022-09-24T12:30:55.705Z,97791.10
2022-09-24T12:33:35.678Z,97785.86
2022-09-24T12:36:17.458Z,97786.95
2022-09-24T12:38:51.654Z,97788.00
2022-09-24T12:41:48.459Z,97788.88
2022-09-24T12:44:23.991Z,97790.40
2022-09-24T12:46:58.471Z,97787.70
2022-09-24T12:49:26.417Z,97782.64
2022-09-24T12:52:00.476Z,97777.36
2022-09-24T12:54:30.485Z,97781.44
2022-09-24T12:57:14.566Z,97784.63
2022-09-24T13:00:00.188Z,97785.72
2022-09-24T13:02:33.419Z,97782.67
2022-09-24T13:05:01.557Z,97778.02
2022-09-24T13:08:02.002Z,97777.17
2022-09-24T13:10:38.720Z,97774.69
2022-09-24T13:13:26.043Z,97767.63
2022-09-24T13:16:18.081Z,97760.88
2022-09-24T13:18:59.684Z,97758.97
2022-09-24T13:21:30.505Z,97751.75
2022-09-24T13:23:58.984Z,97746.27
2022-09-24T13:26:34.100Z,97739.27
2022-09-24T13:29:06.221Z,97750.10
2022-09-24T13:31:49.548Z,97756.36
2022-09-24T13:34:17.786Z,97758.46
2022-09-24T13:37:15.780Z,97756.45
2022-09-24T13:40:01.824Z,97760.58
2022-09-24T13:42:46.321Z,97760.00
2022-09-24T13:45:19.993Z,97760.79
2022-09-24T13:47:53.748Z,97759.98
2022-09-24T13:50:28.355Z,97759.56
2022-09-24T13:53:17.757Z,97759.23
2022-09-24T13:55:49.782Z,97757.21
2022-09-24T13:58:34.458Z,97757.05
2022-09-24T14:01:11.894Z,97753.86
2022-09-24T14:03:51.548Z,97756.83
2022-09-24T14:06:24.096Z,97758.20
2022-09-24T14:08:52.212Z,97752.55
2022-09-24T14:11:26.486Z,97746.92
2022-09-24T14:13:57.611Z,97739.83
2022-09-24T14:16:29.101Z,97736.58
2022-09-24T14:19:05.986Z,97735.61
2022-09-24T14:21:41.744Z,97730.55
2022-09-24T14:24:21.303Z,97730.54
2022-09-24T14:27:00.501Z,97741.66
2022-09-24T14:29:48.884Z,97739.20
2022-09-24T14:32:38.531Z,97735.96
2022-09-24T14:35:09.277Z,97738.64
2022-09-24T14:37:47.575Z,97740.86
2022-09-24T14:40:18.580Z,97739.86
2022-09-24T14:42:55.883Z,97742.94
2022-09-24T14:45:30.594Z,97742.16
2022-09-24T14:48:26.667Z,97739.09
2022-09-24T14:50:54.708Z,97745.48
2022-09-24T14:53:29.958Z,97746.74
2022-09-24T14:55:58.015Z,97749.32
2022-09-24T14:58:29.194Z,97751.00
2022-09-24T15:01:08.053Z,97751.50
2022-09-24T15:03:50.323Z,97749.73
2022-09-24T15:06:22.839Z,97744.41
2022-09-24T15:08:53.909Z,97731.83
2022-09-24T15:11:28.121Z,97722.98
2022-09-24T15:14:01.883Z,97724.83
2022-09-24T15:16:35.944Z,97723.28
2022-09-24T15:19:07.023Z,97724.86
2022-09-24T15:21:35.101Z,97738.67
2022-09-24T15:24:03.346Z,97741.84
2022-09-24T15:26:34.324Z,97744.70
2022-09-24T15:29:03.222Z,97737.11
2022-09-24T15:31:32.117Z,97729.42
2022-09-24T15:34:00.333Z,97724.11
2022-09-24T15:36:28.317Z,97727.68
2022-09-24T15:39:02.080Z,97730.70
2022-09-24T15:41:31.172Z,97729.35
2022-09-24T15:44:00.062Z,97732.73
2022-09-24T15:46:28.473Z,97733.14
2022-09-24T15:48:56.958Z,97730.80
2022-09-24T15:51:25.123Z,97730.57
2022-09-24T15:53:53.291Z,97733.30
2022-09-24T15:56:22.158Z,97729.63
2022-09-24T15:58:51.071Z,97727.42
2022-09-24T16:01:19.485Z,97727.67
2022-09-24T16:03:47.668Z,97727.02
2022-09-24T16:06:15.683Z,97723.43
2022-09-24T16:08:43.942Z,97722.66
2022-09-24T16:11:12.001Z,97723.13
2022-09-24T16:13:40.077Z,97719.23
2022-09-24T16:16:08.556Z,97722.37
2022-09-24T16:18:40.059Z,97726.42
2022-09-24T16:21:08.587Z,97726.55
2022-09-24T16:23:39.076Z,97723.48
2022-09-24T16:26:09.713Z,97720.73
2022-09-24T16:28:37.717Z,97721.61
2022-09-24T16:31:07.410Z,97720.88
2022-09-24T16:33:40.022Z,97726.08
2022-09-24T16:36:08.964Z,97726.88
2022-09-24T16:38:38.393Z,97729.08
2022-09-24T16:41:07.153Z,97726.65
2022-09-24T16:43:35.379Z,97720.35
2022-09-24T16:46:05.607Z,97714.42
2022-09-24T16:48:34.290Z,97713.25
2022-09-24T16:51:11.202Z,97711.23
2022-09-24T16:53:39.250Z,97710.31
2022-09-24T16:56:15.069Z,97717.12
2022-09-24T16:58:45.266Z,97722.48
2022-09-24T17:01:16.658Z,97723.41
2022-09-24T17:03:50.399Z,97729.98
2022-09-24T17:06:21.331Z,97730.73
2022-09-24T17:09:08.544Z,97729.89
2022-09-24T17:11:38.022Z,97725.96
2022-09-24T17:14:07.679Z,97729.90
2022-09-24T17:16:35.796Z,97733.14
2022-09-24T17:19:04.365Z,97734.48
2022-09-24T17:21:32.496Z,97734.05
2022-09-24T17:24:00.453Z,97736.77
2022-09-24T17:26:28.708Z,97738.11
2022-09-24T17:28:56.893Z,97736.83
2022-09-24T17:31:26.390Z,97732.20
2022-09-24T17:33:56.645Z,97732.12
2022-09-24T17:36:26.389Z,97742.36
2022-09-24T17:38:56.551Z,97748.77
2022-09-24T17:41:24.825Z,97752.77
2022-09-24T17:43:53.023Z,97756.55
2022-09-24T17:46:22.755Z,97757.58
2022-09-24T17:48:53.433Z,97759.48
2022-09-24T17:51:27.023Z,97762.95
2022-09-24T17:53:55.755Z,97765.19
2022-09-24T17:56:26.252Z,97772.14
2022-09-24T17:58:56.194Z,97779.05
2022-09-24T18:01:30.119Z,97785.23
2022-09-24T18:03:59.023Z,97787.02
2022-09-24T18:06:32.721Z,97781.96
2022-09-24T18:09:02.376Z,97778.10
2022-09-24T18:11:33.894Z,97774.92
2022-09-24T18:14:02.802Z,97780.65
2022-09-24T18:16:33.453Z,97786.93
2022-09-24T18:19:02.783Z,97787.79
2022-09-24T18:21:31.241Z,97794.59
2022-09-24T18:24:00.978Z,97796.19
2022-09-24T18:26:35.413Z,97796.91
2022-09-24T18:29:10.357Z,97797.80
2022-09-24T18:31:39.382Z,97795.56
2022-09-24T18:34:13.173Z,97796.68
2022-09-24T18:36:45.180Z,97799.95
2022-09-24T18:39:21.848Z,97796.75
2022-09-24T18:41:52.521Z,97791.63
2022-09-24T18:44:20.944Z,97791.23
2022-09-24T18:46:50.035Z,97792.40
2022-09-24T18:49:19.609Z,97791.64
2022-09-24T18:51:49.181Z,97798.72
2022-09-24T18:54:18.540Z,97797.92
2022-09-24T18:56:48.444Z,97799.36
2022-09-24T18:59:19.725Z,97798.39
2022-09-24T19:01:49.370Z,97804.71
2022-09-24T19:04:18.500Z,97801.98
2022-09-24T19:06:51.420Z,97807.74
2022-09-24T19:09:20.401Z,97811.24
2022-09-24T19:11:49.298Z,97807.42
2022-09-24T19:14:18.600Z,97807.04
2022-09-24T19:16:48.206Z,97803.88
2022-09-24T19:19:16.459Z,97802.46
2022-09-24T19:21:45.193Z,97806.98
2022-09-24T19:24:13.513Z,97807.16
2022-09-24T19:26:41.953Z,97809.41
2022-09-24T19:29:10.482Z,97806.45
2022-09-24T19:31:45.698Z,97813.09
2022-09-24T19:34:14.706Z,97815.92
2022-09-24T19:36:45.030Z,97818.97
2022-09-24T19:39:16.457Z,97818.56
2022-09-24T19:41:45.136Z,97819.38
2022-09-24T19:44:16.286Z,97813.54
2022-09-24T19:46:45.017Z,97818.91
2022-09-24T19:49:13.876Z,97817.77
2022-09-24T19:51:41.997Z,97817.20
2022-09-24T19:54:10.854Z,97819.02
2022-09-24T19:56:39.018Z,97821.26
2022-09-24T19:59:08.937Z,97824.67
2022-09-24T20:01:37.810Z,97824.55
2022-09-24T20:04:07.663Z,97824.42
2022-09-24T20:06:38.655Z,97826.17
2022-09-24T20:09:08.094Z,97828.43
2022-09-24T20:11:36.457Z,97828.98
2022-09-24T20:14:07.736Z,97824.47
2022-09-24T20:16:36.101Z,97831.08
2022-09-24T20:19:04.327Z,97835.44
2022-09-24T20:21:38.247Z,97834.24
2022-09-24T20:24:08.529Z,97836.38
2022-09-24T20:26:55.629Z,97840.61
2022-09-24T20:29:24.221Z,97842.59
2022-09-24T20:31:55.695Z,97844.05
2022-09-24T20:34:28.855Z,97844.66
2022-09-24T20:37:01.693Z,97845.29
2022-09-24T20:39:31.607Z,97846.61
2022-09-24T20:42:04.069Z,97846.52
2022-09-24T20:44:34.509Z,97847.83
2022-09-24T20:47:02.471Z,97845.95
2022-09-24T20:49:31.212Z,97843.55
2022-09-24T20:51:59.160Z,97840.77
2022-09-24T20:54:28.685Z,97842.89
2022-09-24T20:56:57.727Z,97844.82
2022-09-24T20:59:26.727Z,97841.16
2022-09-24T21:01:54.847Z,97839.05
2022-09-24T21:04:24.135Z,97839.56
2022-09-24T21:06:52.447Z,97838.66
2022-09-24T21:09:20.984Z,97843.35
2022-09-24T21:11:50.615Z,97851.04
2022-09-24T21:14:19.418Z,97855.63
2022-09-24T21:16:48.089Z,97855.80
2022-09-24T21:19:16.433Z,97852.45
2022-09-24T21:21:44.612Z,97851.30
2022-09-24T21:24:14.915Z,97854.86
2022-09-24T21:26:45.422Z,97852.30
2022-09-24T21:29:18.333Z,97851.77
2022-09-24T21:31:47.806Z,97844.15
2022-09-24T21:34:20.833Z,97840.37
2022-09-24T21:36:49.541Z,97837.63
2022-09-24T21:39:20.092Z,97834.72
2022-09-24T21:41:53.241Z,97833.89
2022-09-24T21:44:22.026Z,97828.33
2022-09-24T21:46:52.900Z,97832.54
2022-09-24T21:49:20.995Z,97832.20
2022-09-24T21:51:49.018Z,97833.61
2022-09-24T21:54:18.542Z,97834.31
2022-09-24T21:56:47.005Z,97834.19
2022-09-24T21:59:39.155Z,97832.31
2022-09-24T22:02:08.773Z,97836.35
2022-09-24T22:04:37.013Z,97835.00
2022-09-24T22:07:04.987Z,97832.58
2022-09-24T22:09:33.698Z,97836.79
2022-09-24T22:12:04.426Z,97837.70
2022-09-24T22:14:35.023Z,97838.64
2022-09-24T22:17:04.100Z,97833.52
2022-09-24T22:19:32.168Z,97829.08
2022-09-24T22:22:00.220Z,97829.00
2022-09-24T22:24:28.370Z,97825.08
2022-09-24T22:26:56.394Z,97831.59
2022-09-24T22:29:24.407Z,97834.95
2022-09-24T22:31:52.594Z,97834.81
2022-09-24T22:34:39.053Z,97830.30
2022-09-24T22:37:07.764Z,97831.90
2022-09-24T22:39:36.255Z,97835.73
2022-09-24T22:42:05.934Z,97833.47
2022-09-24T22:44:34.303Z,97830.31
2022-09-24T22:47:02.410Z,97827.48
2022-09-24T22:49:31.919Z,97825.39
2022-09-24T22:52:00.548Z,97829.38
2022-09-24T22:54:28.785Z,97830.24
2022-09-24T22:56:56.869Z,97828.85
2022-09-24T22:59:25.050Z,97829.72
2022-09-24T23:01:53.276Z,97829.05
2022-09-24T23:04:21.464Z,97835.14
2022-09-24T23:06:49.531Z,97839.33
2022-09-24T23:09:17.724Z,97841.41
2022-09-24T23:11:45.734Z,97839.31
2022-09-24T23:14:15.824Z,97842.62
2022-09-24T23:16:44.307Z,97845.75
2022-09-24T23:19:15.230Z,97841.73
2022-09-24T23:21:43.732Z,97838.43
2022-09-24T23:24:14.655Z,97835.66
2022-09-24T23:26:44.014Z,97830.10
2022-09-24T23:29:13.219Z,97828.90
2022-09-24T23:31:41.630Z,97828.38
2022-09-24T23:34:12.632Z,97827.82
2022-09-24T23:36:40.769Z,97823.77
2022-09-24T23:39:09.106Z,97822.84
2022-09-24T23:41:37.749Z,97828.77
2022-09-24T23:44:06.167Z,97820.42
2022-09-24T23:46:34.207Z,97823.00
2022-09-24T23:49:02.540Z,97822.80
2022-09-24T23:51:30.950Z,97824.34
2022-09-24T23:54:00.155Z,97825.17
2022-09-24T23:56:28.566Z,97823.08
2022-09-24T23:58:57.856Z,97820.80
